SASA

Martin Miguel De Guemes International Airport

Salta, Argentina
TAF SASA 171100Z 1712/1812 18005KT 9999 SCT020 FEW040TCU TX30/1718Z TN18/1810Z BECMG 1715/1718 18010KT 9999 SCT025 FEW040CB PROB40 TEMPO 1718/1721 18015G25KT 5000 TSRA BKN015 FEW030CB BECMG 1800/1803 14010KT 8000 RA SCT010 OVC025
Issued Valid From Valid To
Dec-17 @ 11:00 UTC
(an hour ago)
Dec-17 @ 12:00 UTC
(8 minutes ago)
Dec-18 @ 12:00 UTC
(in 24 hours)
Dec-17 @ 12:00 to Dec-17 @ 15:00
TAF SASA 171100Z 1712/1812 18005KT 9999 SCT020 FEW040TCU TX30/1718Z TN18/1810Z
Wind Visibility Clouds
180° at 5 knots 10,000+ meters
  • Scattered at 2,000' AGL
  • Few at 4,000' AGL
Becoming Dec-17 @ 15:00 to Dec-18 @ 00:00
BECMG 1715/1718 18010KT 9999 SCT025 FEW040CB
Wind Visibility Clouds
180° at 10 knots 10,000+ meters
  • Scattered at 2,500' AGL
  • Few at 4,000' AGL
Temporary  (Probability 40%) Dec-17 @ 18:00 to Dec-17 @ 21:00
PROB40 TEMPO 1718/1721 18015G25KT 5000 TSRA BKN015 FEW030CB
Wind Visibility Clouds Conditions
180° at 15 knots
 Gusting to 25 knots
5,005 meters
  • Broken at 1,500' AGL
  • Few at 3,000' AGL
  • Thunderstorm
  • Rain
Becoming Dec-18 @ 00:00 to Dec-18 @ 12:00
BECMG 1800/1803 14010KT 8000 RA SCT010 OVC025
Wind Visibility Clouds Conditions
140° at 10 knots 7,998 meters
  • Scattered at 1,000' AGL
  • Overcast at 2,500' AGL
  • Rain
TAF SASA 171100Z 1712/1812 18005KT 9999 SCT020 FEW040TCU TX30/1718Z TN18/1810Z BECMG 1715/1718 18010KT 9999 SCT025 FEW040CB PROB40 TEMPO 1718/1721 18015G25KT 5000 TSRA BKN015 FEW030CB BECMG 1800/1803 14010KT 8000 RA SCT010 OVC025
Issued Dec-17 @ 11:00 UTC
(an hour ago)
Valid From Dec-17 @ 12:00 UTC
(8 minutes ago)
Valid To Dec-18 @ 12:00 UTC
(in 24 hours)
Dec-17 @ 12:00 - Dec-17 @ 15:00
Wind Visibility
180° at 5 knots 10,000+ meters
Clouds
  • Scattered at 2,000' AGL
  • Few at 4,000' AGL
Becoming Dec-17 @ 15:00 - Dec-18 @ 00:00
Wind Visibility
180° at 10 knots 10,000+ meters
Clouds
  • Scattered at 2,500' AGL
  • Few at 4,000' AGL
Probability 40% Temporary Dec-17 @ 18:00 - Dec-17 @ 21:00
Wind Visibility
180° at 15 knots
 Gusting to 25 knots
5,005 meters
Clouds
  • Broken at 1,500' AGL
  • Few at 3,000' AGL
Conditions
  • Thunderstorm
  • Rain
Becoming Dec-18 @ 00:00 - Dec-18 @ 12:00
Wind Visibility
140° at 10 knots 7,998 meters
Clouds
  • Scattered at 1,000' AGL
  • Overcast at 2,500' AGL
Conditions
  • Rain